Delta Virtual Airport Information Service

Fort Lauderdale Hollywood International Airport

ICAO: KFLL Country: United States
Latitude: 26.0726 Longitude: -80.1527
Latest Arrival : SWA619 (MBPV-KFLL) Latest Departure : SWA618 (KFLL-MBPV)


WX CaptureLIVE
Data provided by noaa.gov | Fetched at 07:43:34

METAR : KFLL 061253Z 10007KT 10SM FEW045 SCT100 BKN250 22/15 A2998 RMK AO2 SLP151 T02170150 $

TAF : KFLL 061120Z 0612/0718 09007KT P6SM SCT040 SCT250 FM061400 13008KT P6SM VCSH SCT040 SCT120 BKN250 FM061700 10009KT P6SM VCTS SCT030CB BKN050 BKN250 TEMPO 0622/0702 4SM SHRA BKN010 FM070200 02006KT P6SM VCSH SCT025 SCT040 BKN100 FM070900 34007KT P6SM FEW040 SCT100 BKN250


Runway Data for KFLL
Data provided by openaviationdata.com

Runway ID Mag Var Hdg Length Elevation Surface ILS Freq ILS Id ILS Slope
09L -5 95° 8994 ft 9 ft Asphalt 110.1 ILHI 3
09R -5 95° 5272 ft 9 ft Asphalt 108.5 IFLL 0
13 -5 140° 6938 ft 9 ft Asphalt 109.35 ILID 0
27L -5 275° 5272 ft 9 ft Asphalt -- -- --
27R -5 275° 8994 ft 9 ft Asphalt 110.7 IUDL 3
31 -5 320° 6938 ft 9 ft Asphalt -- -- --

Fort Lauderdale Hollywood International Airport, United States
Use only for reference purposes



Not for navigational purposes.